Terminal Aerodrome Forecast
Issued by NWS Bismarck, ND

Home | Current Version | Previous Version | Graphics & Text | Print | Product List | Glossary On
Versions: 1 2 3 4 5 6 7 8 9 10 11 12 13 14 15 16 17 18 19
720
FTUS43 KBIS 222325
TAFISN
TAF
KISN 222325Z 2300/2324 27006KT P6SM BKN020
     FM231300 VRB03KT 5SM BR OVC008
     FM231500 VRB03KT 4SM BR OVC003
     FM231800 04004KT P6SM OVC003
     FM232000 04004KT P6SM BKN008=

USA.gov is the U.S. government's official web portal to all federal, state and local government web resources and services.